createdAt,value
2022-10-11T00:01:33.459Z,7.38
2022-10-11T00:04:18.651Z,7.43
2022-10-11T00:07:04.423Z,6.93
2022-10-11T00:09:49.514Z,7.28
2022-10-11T00:12:35.338Z,9.13
2022-10-11T00:15:21.915Z,9.02
2022-10-11T00:18:07.552Z,6.82
2022-10-11T00:21:06.630Z,7.22
2022-10-11T00:23:52.109Z,7.10
2022-10-11T00:26:37.452Z,7.35
2022-10-11T00:29:22.731Z,12.98
2022-10-11T00:32:08.019Z,14.15
2022-10-11T00:34:53.476Z,12.68
2022-10-11T00:37:39.511Z,30.25
2022-10-11T00:40:25.012Z,25.17
2022-10-11T00:43:20.250Z,13.18
2022-10-11T00:46:07.911Z,9.25
2022-10-11T00:48:59.489Z,8.13
2022-10-11T00:51:50.315Z,8.60
2022-10-11T00:54:39.396Z,7.90
2022-10-11T00:57:27.909Z,7.90
2022-10-11T01:00:14.416Z,7.20
2022-10-11T01:03:01.298Z,6.65
2022-10-11T01:05:46.231Z,7.57
2022-10-11T01:08:32.291Z,6.63
2022-10-11T01:11:21.125Z,7.20
2022-10-11T01:14:27.927Z,7.30
2022-10-11T01:17:43.416Z,6.95
2022-10-11T01:20:38.645Z,6.50
2022-10-11T01:23:32.578Z,6.80
2022-10-11T01:26:40.208Z,7.30
2022-10-11T01:29:31.809Z,6.80
2022-10-11T01:32:18.539Z,6.13
2022-10-11T01:35:46.579Z,8.23
2022-10-11T01:38:49.293Z,5.78
2022-10-11T01:41:42.697Z,5.82
2022-10-11T01:44:30.308Z,7.53
2022-10-11T01:47:20.188Z,6.72
2022-10-11T01:50:07.928Z,7.07
2022-10-11T01:52:54.816Z,6.65
2022-10-11T01:55:55.157Z,5.80
2022-10-11T01:59:11.186Z,6.50
2022-10-11T02:02:23.859Z,7.60
2022-10-11T02:05:36.562Z,7.30
2022-10-11T02:11:32.929Z,6.90
2022-10-11T02:14:24.830Z,7.05
2022-10-11T02:17:20.027Z,7.55
2022-10-11T02:20:11.384Z,7.57
2022-10-11T02:23:02.385Z,6.97
2022-10-11T02:25:48.995Z,7.40
2022-10-11T02:28:37.954Z,6.60
2022-10-11T02:31:24.448Z,7.55
2022-10-11T02:34:21.928Z,7.63
2022-10-11T02:37:30.392Z,8.65
2022-10-11T02:40:28.986Z,8.10
2022-10-11T02:43:24.174Z,8.27
2022-10-11T02:46:10.235Z,6.90
2022-10-11T02:48:55.383Z,6.25
2022-10-11T02:51:40.933Z,7.13
2022-10-11T02:54:27.091Z,7.47
2022-10-11T02:57:12.763Z,6.25
2022-10-11T02:59:57.996Z,6.43
2022-10-11T03:02:43.558Z,7.28
2022-10-11T03:05:28.944Z,6.38
2022-10-11T03:08:16.297Z,6.93
2022-10-11T03:11:01.377Z,7.28
2022-10-11T03:13:46.751Z,6.43
2022-10-11T03:16:32.276Z,6.90
2022-10-11T03:19:19.438Z,6.20
2022-10-11T03:22:05.127Z,7.35
2022-10-11T03:24:50.430Z,6.65
2022-10-11T03:27:36.121Z,8.10
2022-10-11T03:30:21.626Z,6.60
2022-10-11T03:33:06.937Z,7.35
2022-10-11T03:35:52.372Z,7.25
2022-10-11T03:38:37.720Z,7.57
2022-10-11T03:41:23.103Z,8.02
2022-10-11T03:44:08.652Z,8.15
2022-10-11T03:46:54.107Z,6.88
2022-10-11T03:49:43.473Z,6.60
2022-10-11T03:52:28.983Z,6.25
2022-10-11T03:55:14.283Z,6.72
2022-10-11T03:57:59.728Z,6.70
2022-10-11T04:00:45.226Z,6.80
2022-10-11T04:03:30.847Z,7.70
2022-10-11T04:06:16.345Z,7.50
2022-10-11T04:09:02.127Z,7.03
2022-10-11T04:11:47.270Z,7.25
2022-10-11T04:14:32.554Z,6.43
2022-10-11T04:17:18.147Z,6.63
2022-10-11T04:20:03.913Z,7.05
2022-10-11T04:22:49.175Z,6.15
2022-10-11T04:25:34.695Z,6.80
2022-10-11T04:28:20.050Z,7.38
2022-10-11T04:31:06.581Z,7.10
2022-10-11T04:33:51.909Z,6.88
2022-10-11T04:36:38.952Z,6.97
2022-10-11T04:39:25.163Z,6.60
2022-10-11T04:42:10.435Z,7.35
2022-10-11T04:44:55.693Z,6.25
2022-10-11T04:47:41.551Z,5.65
2022-10-11T04:50:26.655Z,7.28
2022-10-11T04:53:12.116Z,5.20
2022-10-11T04:56:01.057Z,6.15
2022-10-11T04:58:51.840Z,7.00
2022-10-11T05:01:37.170Z,7.05
2022-10-11T05:04:22.638Z,7.90
2022-10-11T05:07:07.914Z,7.28
2022-10-11T05:09:53.419Z,7.22
2022-10-11T05:12:38.864Z,6.68
2022-10-11T05:15:24.404Z,7.80
2022-10-11T05:18:09.809Z,7.03
2022-10-11T05:21:07.235Z,6.85
2022-10-11T05:23:53.944Z,6.40
2022-10-11T05:26:39.156Z,8.23
2022-10-11T05:29:24.388Z,7.85
2022-10-11T05:32:09.646Z,6.32
2022-10-11T05:34:55.010Z,7.15
2022-10-11T05:37:40.504Z,7.45
2022-10-11T05:40:25.863Z,8.82
2022-10-11T05:43:11.422Z,9.05
2022-10-11T05:45:56.649Z,9.55
2022-10-11T05:48:41.874Z,9.85
2022-10-11T05:51:27.264Z,9.30
2022-10-11T05:54:12.611Z,11.02
2022-10-11T05:56:57.999Z,9.68
2022-10-11T05:59:43.397Z,10.23
2022-10-11T06:02:28.811Z,10.75
2022-10-11T06:05:14.413Z,10.27
2022-10-11T06:07:59.669Z,9.30
2022-10-11T06:10:45.102Z,10.98
2022-10-11T06:13:30.672Z,9.15
2022-10-11T06:16:16.223Z,11.60
2022-10-11T06:19:01.392Z,11.88
2022-10-11T06:21:47.733Z,11.55
2022-10-11T06:24:33.222Z,11.27
2022-10-11T06:27:18.680Z,11.20
2022-10-11T06:30:05.432Z,9.52
2022-10-11T06:32:50.394Z,9.90
2022-10-11T06:35:35.793Z,8.60
2022-10-11T06:38:21.175Z,9.27
2022-10-11T06:41:23.516Z,10.10
2022-10-11T06:44:14.454Z,8.90
2022-10-11T06:46:59.889Z,8.48
2022-10-11T06:49:45.235Z,8.45
2022-10-11T06:52:30.766Z,7.80
2022-10-11T06:55:16.245Z,7.25
2022-10-11T06:58:01.623Z,7.40
2022-10-11T07:00:47.348Z,6.90
2022-10-11T07:03:33.211Z,6.28
2022-10-11T07:06:24.456Z,6.90
2022-10-11T07:09:09.966Z,6.20
2022-10-11T07:11:55.624Z,6.07
2022-10-11T07:14:40.710Z,6.28
2022-10-11T07:17:26.138Z,7.35
2022-10-11T07:20:12.357Z,7.75
2022-10-11T07:22:57.746Z,5.97
2022-10-11T07:25:42.943Z,6.55
2022-10-11T07:28:31.764Z,5.80
2022-10-11T07:31:19.828Z,7.15
2022-10-11T07:34:05.236Z,5.90
2022-10-11T07:36:50.674Z,5.93
2022-10-11T07:39:36.432Z,5.68
2022-10-11T07:42:22.448Z,6.22
2022-10-11T07:45:08.051Z,5.63
2022-10-11T07:47:55.916Z,6.18
2022-10-11T07:50:41.368Z,5.65
2022-10-11T07:53:26.627Z,5.45
2022-10-11T07:56:14.070Z,6.13
2022-10-11T07:59:01.504Z,6.45
2022-10-11T08:01:46.717Z,5.07
2022-10-11T08:04:32.198Z,5.32
2022-10-11T08:07:17.622Z,5.63
2022-10-11T08:10:04.695Z,5.68
2022-10-11T08:12:50.113Z,5.40
2022-10-11T08:15:35.642Z,6.10
2022-10-11T08:18:21.136Z,4.93
2022-10-11T08:21:11.475Z,4.82
2022-10-11T08:23:56.575Z,6.22
2022-10-11T08:26:43.512Z,5.25
2022-10-11T08:29:28.802Z,5.53
2022-10-11T08:32:14.490Z,5.20
2022-10-11T08:34:59.919Z,5.07
2022-10-11T08:37:45.301Z,5.20
2022-10-11T08:40:35.138Z,5.20
2022-10-11T08:43:36.416Z,5.13
2022-10-11T08:46:28.320Z,4.93
2022-10-11T08:49:15.236Z,4.13
2022-10-11T08:52:04.562Z,4.13
2022-10-11T08:54:57.664Z,3.65
2022-10-11T08:57:48.551Z,3.50
2022-10-11T09:00:36.384Z,3.97
2022-10-11T09:03:42.427Z,4.65
2022-10-11T09:06:53.733Z,5.03
2022-10-11T09:10:26.397Z,4.15
2022-10-11T09:13:31.395Z,3.88
2022-10-11T09:16:42.637Z,4.40
2022-10-11T09:19:36.573Z,3.50
2022-10-11T09:22:39.561Z,3.88
2022-10-11T09:25:51.076Z,3.85
2022-10-11T09:28:44.971Z,3.08
2022-10-11T09:31:31.281Z,3.58
2022-10-11T09:34:16.456Z,5.03
2022-10-11T09:37:29.998Z,4.70
2022-10-11T09:40:53.814Z,3.30
2022-10-11T09:43:39.475Z,3.80
2022-10-11T09:46:43.340Z,3.67
2022-10-11T09:49:35.106Z,3.45
2022-10-11T09:52:22.814Z,2.83
2022-10-11T09:55:28.071Z,3.40
2022-10-11T09:58:32.303Z,2.42
2022-10-11T10:01:25.574Z,2.78
2022-10-11T10:04:13.871Z,2.70
2022-10-11T10:07:13.130Z,2.72
2022-10-11T10:09:58.895Z,4.18
2022-10-11T10:12:44.120Z,4.20
2022-10-11T10:15:36.585Z,3.20
2022-10-11T10:18:42.404Z,2.88
2022-10-11T10:21:34.959Z,3.65
2022-10-11T10:27:10.997Z,4.45
2022-10-11T10:30:08.631Z,3.72
2022-10-11T10:33:06.968Z,2.90
2022-10-11T10:36:14.215Z,3.67
2022-10-11T10:39:10.103Z,2.65
2022-10-11T10:41:55.956Z,3.85
2022-10-11T10:44:42.730Z,3.38
2022-10-11T10:47:59.320Z,4.47
2022-10-11T10:50:58.764Z,3.90
2022-10-11T10:53:49.627Z,4.20
2022-10-11T10:56:44.162Z,3.78
2022-10-11T10:59:47.527Z,3.40
2022-10-11T11:03:03.143Z,3.70
2022-10-11T11:06:07.663Z,3.63
2022-10-11T11:09:20.486Z,3.72
2022-10-11T11:12:37.372Z,4.15
2022-10-11T11:15:37.947Z,3.38
2022-10-11T11:18:42.088Z,3.25
2022-10-11T11:21:58.157Z,3.53
2022-10-11T11:24:46.361Z,3.05
2022-10-11T11:28:00.338Z,2.92
2022-10-11T11:30:54.407Z,3.75
2022-10-11T11:33:56.507Z,3.17
2022-10-11T11:36:53.252Z,3.72
2022-10-11T11:39:46.032Z,3.00
2022-10-11T11:42:40.379Z,3.53
2022-10-11T11:45:32.952Z,3.17
2022-10-11T11:48:21.328Z,3.70
2022-10-11T11:51:14.086Z,3.20
2022-10-11T11:54:06.551Z,3.13
2022-10-11T12:00:04.193Z,3.97
2022-10-11T12:03:03.744Z,3.63
2022-10-11T12:06:15.012Z,3.50
2022-10-11T12:09:24.021Z,3.17
2022-10-11T12:12:36.145Z,3.42
2022-10-11T12:15:25.897Z,3.95
2022-10-11T12:18:16.464Z,3.22
2022-10-11T12:21:18.682Z,3.00
2022-10-11T12:24:50.093Z,3.33
2022-10-11T12:27:45.193Z,3.15
2022-10-11T12:30:50.631Z,3.45
2022-10-11T12:33:38.911Z,3.60
2022-10-11T12:36:46.614Z,3.47
2022-10-11T12:39:55.098Z,4.13
2022-10-11T12:43:12.287Z,3.97
2022-10-11T12:46:17.487Z,3.15
2022-10-11T12:49:40.569Z,3.08
2022-10-11T12:55:33.432Z,4.43
2022-10-11T12:58:33.920Z,3.60
2022-10-11T13:01:24.551Z,2.60
2022-10-11T13:04:11.740Z,2.70
2022-10-11T13:07:15.418Z,3.50
2022-10-11T13:10:00.682Z,3.10
2022-10-11T13:12:47.862Z,3.20
2022-10-11T13:15:34.711Z,3.05
2022-10-11T13:18:29.829Z,5.82
2022-10-11T13:21:40.457Z,3.72
2022-10-11T13:24:29.695Z,3.95
2022-10-11T13:27:25.270Z,3.47
2022-10-11T13:30:39.242Z,3.17
2022-10-11T13:33:36.119Z,4.32
2022-10-11T13:36:24.672Z,3.28
2022-10-11T13:39:31.293Z,3.20
2022-10-11T13:42:30.562Z,3.17
2022-10-11T13:45:20.878Z,4.53
2022-10-11T13:48:15.047Z,3.97
2022-10-11T13:51:30.182Z,3.67
2022-10-11T13:54:15.734Z,3.55
2022-10-11T13:57:01.459Z,3.50
2022-10-11T13:59:46.801Z,3.20
2022-10-11T14:02:32.698Z,3.00
2022-10-11T14:05:27.681Z,3.95
2022-10-11T14:08:38.566Z,3.90
2022-10-11T14:11:40.033Z,3.50
2022-10-11T14:14:34.501Z,3.45
2022-10-11T14:17:22.387Z,3.85
2022-10-11T14:20:21.698Z,3.47
2022-10-11T14:23:07.128Z,2.83
2022-10-11T14:25:53.101Z,3.35
2022-10-11T14:28:38.703Z,3.17
2022-10-11T14:31:24.445Z,4.15
2022-10-11T14:34:20.608Z,3.88
2022-10-11T14:37:05.756Z,3.42
2022-10-11T14:39:51.643Z,3.75
2022-10-11T14:42:36.705Z,4.35
2022-10-11T14:45:22.506Z,3.70
2022-10-11T14:48:07.900Z,2.95
2022-10-11T14:50:58.515Z,3.60
2022-10-11T14:53:46.332Z,3.08
2022-10-11T14:56:31.398Z,4.07
2022-10-11T14:59:19.851Z,3.25
2022-10-11T15:02:07.769Z,3.10
2022-10-11T15:04:52.935Z,4.20
2022-10-11T15:07:38.318Z,3.47
2022-10-11T15:10:35.163Z,3.63
2022-10-11T15:13:20.170Z,3.47
2022-10-11T15:16:06.388Z,3.90
2022-10-11T15:18:51.912Z,3.13
2022-10-11T15:21:36.996Z,3.55
2022-10-11T15:24:22.573Z,2.97
2022-10-11T15:27:07.995Z,3.53
2022-10-11T15:29:53.275Z,3.65
2022-10-11T15:32:38.697Z,3.55
2022-10-11T15:35:25.795Z,3.33
2022-10-11T15:38:22.705Z,3.58
2022-10-11T15:41:12.861Z,4.72
2022-10-11T15:43:58.062Z,3.97
2022-10-11T15:46:43.782Z,4.53
2022-10-11T15:49:28.827Z,4.40
2022-10-11T15:52:14.293Z,4.13
2022-10-11T15:55:03.616Z,4.22
2022-10-11T15:57:48.951Z,3.53
2022-10-11T16:00:34.509Z,4.35
2022-10-11T16:03:21.386Z,4.07
2022-10-11T16:06:07.751Z,4.57
2022-10-11T16:08:53.540Z,5.53
2022-10-11T16:11:38.631Z,4.80
2022-10-11T16:14:23.992Z,4.60
2022-10-11T16:17:09.378Z,4.47
2022-10-11T16:19:54.668Z,3.95
2022-10-11T16:22:40.220Z,3.85
2022-10-11T16:25:25.614Z,3.92
2022-10-11T16:28:11.338Z,4.60
2022-10-11T16:30:57.032Z,4.93
2022-10-11T16:33:48.212Z,4.22
2022-10-11T16:36:36.433Z,4.50
2022-10-11T16:39:22.248Z,4.28
2022-10-11T16:42:07.555Z,4.13
2022-10-11T16:44:53.373Z,4.07
2022-10-11T16:47:38.800Z,3.90
2022-10-11T16:50:23.898Z,4.35
2022-10-11T16:53:09.073Z,4.20
2022-10-11T16:55:54.428Z,3.80
2022-10-11T16:58:39.818Z,3.45
2022-10-11T17:01:26.497Z,4.50
2022-10-11T17:04:13.010Z,3.97
2022-10-11T17:06:58.647Z,4.38
2022-10-11T17:09:45.105Z,5.63
2022-10-11T17:12:31.956Z,4.53
2022-10-11T17:15:17.170Z,4.88
2022-10-11T17:18:03.268Z,4.45
2022-10-11T17:20:48.416Z,4.18
2022-10-11T17:23:35.293Z,4.75
2022-10-11T17:26:26.277Z,4.03
2022-10-11T17:29:16.223Z,5.57
2022-10-11T17:32:01.652Z,4.68
2022-10-11T17:34:46.731Z,4.55
2022-10-11T17:37:32.019Z,4.53
2022-10-11T17:40:17.661Z,5.80
2022-10-11T17:43:02.959Z,5.97
2022-10-11T17:45:55.724Z,9.02
2022-10-11T17:51:27.333Z,10.02
2022-10-11T17:54:12.830Z,5.88
2022-10-11T17:56:58.775Z,4.53
2022-10-11T17:59:44.086Z,4.80
2022-10-11T18:02:29.701Z,4.95
2022-10-11T18:05:16.682Z,4.47
2022-10-11T18:08:02.070Z,4.88
2022-10-11T18:10:47.797Z,3.95
2022-10-11T18:13:33.322Z,4.30
2022-10-11T18:16:21.417Z,4.82
2022-10-11T18:19:10.875Z,4.30
2022-10-11T18:21:56.056Z,4.25
2022-10-11T18:24:41.419Z,4.20
2022-10-11T18:27:28.208Z,3.92
2022-10-11T18:30:14.553Z,4.75
2022-10-11T18:33:00.013Z,5.45
2022-10-11T18:35:45.327Z,5.45
2022-10-11T18:38:30.766Z,5.60
2022-10-11T18:41:19.182Z,4.32
2022-10-11T18:44:06.726Z,3.72
2022-10-11T18:46:52.631Z,3.70
2022-10-11T18:49:37.802Z,3.63
2022-10-11T18:52:23.185Z,3.85
2022-10-11T18:55:08.738Z,3.65
2022-10-11T18:57:54.188Z,4.10
2022-10-11T19:00:41.005Z,3.65
2022-10-11T19:03:29.337Z,3.97
2022-10-11T19:06:18.164Z,3.88
2022-10-11T19:09:13.083Z,4.00
2022-10-11T19:11:58.780Z,3.50
2022-10-11T19:14:44.141Z,3.70
2022-10-11T19:17:30.048Z,3.45
2022-10-11T19:20:15.438Z,3.50
2022-10-11T19:23:00.902Z,3.28
2022-10-11T19:25:46.289Z,3.55
2022-10-11T19:28:31.808Z,3.45
2022-10-11T19:31:17.173Z,3.72
2022-10-11T19:34:02.988Z,3.08
2022-10-11T19:36:50.689Z,3.08
2022-10-11T19:39:35.959Z,3.92
2022-10-11T19:42:21.299Z,3.13
2022-10-11T19:45:07.209Z,3.65
2022-10-11T19:47:52.663Z,3.40
2022-10-11T19:50:38.175Z,2.92
2022-10-11T19:53:24.087Z,5.38
2022-10-11T19:56:12.850Z,4.63
2022-10-11T19:58:59.077Z,4.80
2022-10-11T20:01:48.070Z,4.38
2022-10-11T20:04:52.134Z,4.40
2022-10-11T20:07:38.001Z,4.43
2022-10-11T20:10:23.294Z,3.13
2022-10-11T20:13:11.570Z,3.75
2022-10-11T20:15:57.918Z,3.65
2022-10-11T20:18:43.915Z,3.28
2022-10-11T20:21:30.220Z,4.05
2022-10-11T20:24:15.786Z,3.90
2022-10-11T20:27:03.661Z,4.28
2022-10-11T20:29:49.982Z,4.60
2022-10-11T20:32:35.169Z,3.88
2022-10-11T20:35:20.535Z,3.72
2022-10-11T20:38:05.920Z,3.55
2022-10-11T20:40:51.405Z,3.08
2022-10-11T20:43:36.884Z,7.82
2022-10-11T20:46:31.240Z,9.20
2022-10-11T20:49:16.563Z,5.80
2022-10-11T20:52:02.030Z,3.63
2022-10-11T20:54:47.401Z,4.35
2022-10-11T20:57:33.049Z,4.18
2022-10-11T21:00:18.869Z,3.08
2022-10-11T21:03:04.203Z,4.28
2022-10-11T21:06:00.065Z,3.40
2022-10-11T21:08:45.291Z,3.58
2022-10-11T21:11:33.470Z,3.75
2022-10-11T21:14:18.817Z,3.63
2022-10-11T21:17:04.217Z,3.47
2022-10-11T21:19:49.510Z,2.83
2022-10-11T21:22:35.268Z,2.92
2022-10-11T21:25:21.102Z,3.00
2022-10-11T21:28:07.221Z,3.20
2022-10-11T21:30:52.302Z,2.83
2022-10-11T21:33:38.278Z,2.97
2022-10-11T21:36:24.918Z,3.50
2022-10-11T21:39:10.498Z,2.78
2022-10-11T21:41:55.426Z,2.85
2022-10-11T21:44:43.180Z,3.10
2022-10-11T21:47:28.545Z,3.13
2022-10-11T21:50:13.839Z,3.25
2022-10-11T21:52:59.363Z,3.47
2022-10-11T21:55:44.823Z,3.55
2022-10-11T21:58:30.143Z,3.78
2022-10-11T22:01:16.635Z,3.95
2022-10-11T22:04:02.132Z,3.58
2022-10-11T22:06:47.295Z,3.20
2022-10-11T22:09:34.954Z,3.72
2022-10-11T22:12:20.236Z,3.60
2022-10-11T22:15:06.285Z,3.30
2022-10-11T22:17:51.890Z,3.60
2022-10-11T22:20:37.024Z,3.58
2022-10-11T22:23:22.396Z,3.35
2022-10-11T22:26:10.362Z,3.92
2022-10-11T22:28:55.462Z,4.38
2022-10-11T22:31:41.272Z,3.55
2022-10-11T22:34:31.450Z,4.45
2022-10-11T22:37:17.027Z,4.18
2022-10-11T22:40:02.581Z,3.90
2022-10-11T22:42:47.755Z,4.45
2022-10-11T22:45:33.272Z,4.22
2022-10-11T22:48:18.783Z,4.00
2022-10-11T22:51:04.468Z,4.47
2022-10-11T22:53:49.602Z,4.35
2022-10-11T22:56:34.823Z,4.25
2022-10-11T22:59:20.280Z,4.32
2022-10-11T23:02:05.551Z,4.40
2022-10-11T23:04:52.157Z,4.40
2022-10-11T23:07:37.689Z,4.35
2022-10-11T23:10:23.092Z,3.95
2022-10-11T23:13:08.749Z,4.05
2022-10-11T23:15:54.074Z,4.47
2022-10-11T23:18:40.135Z,4.95
2022-10-11T23:21:26.028Z,4.13
2022-10-11T23:24:11.298Z,5.00
2022-10-11T23:26:56.594Z,4.10
2022-10-11T23:29:42.020Z,4.72
2022-10-11T23:32:27.356Z,4.57
2022-10-11T23:35:12.670Z,5.10
2022-10-11T23:37:58.037Z,4.55
2022-10-11T23:40:43.762Z,5.22
2022-10-11T23:43:29.243Z,5.00
2022-10-11T23:46:14.984Z,5.00
2022-10-11T23:49:00.154Z,4.72
2022-10-11T23:51:45.392Z,6.03
2022-10-11T23:54:30.686Z,5.68
2022-10-11T23:57:16.011Z,6.03
